ENKB

Details ICAO ENKB (KSU)
Name KVERNBERGET
Region Norway
Timezone Europe/Oslo (UTC+2.0)
Plans Departing 102
Arriving 119
Stats Elevation 204 ft / 62 m (AMSL)
Location 63.111900° 7.824530°
Runways 1
Magnetic Variation 2.293° E
Sunrise 2019-07-20 02:10:50 UTC / 2019-07-20 04:10:50 Local
Sunset 2019-07-20 21:01:25 UTC / 2019-07-20 23:01:25 Local
Advertisement - Login to hide

Runways

ID Width Length Bearing (true/mag) Surface Threshold Overrun Markings Lighting
07 148 ft / 45 m 6,192 ft / 1,887 m 71.39° / 69.10° ASPHALT 197 ft / 60 m 0 ft / 0 m PREC-APP CENTERLINE EDGE THRESHOLD MALS
25 148 ft / 45 m 6,192 ft / 1,887 m 251.42° / 249.13° ASPHALT 263 ft / 80 m 0 ft / 0 m APP CENTERLINE EDGE THRESHOLD

Approach Navaids

Runway Type Ident Frequency Range Bearing (true/mag) Slope Elevation
07 GS KB 110.10 MHz 10 nm / 19 km 71.81° / 69.52° 3.00° 204 ft / 62 m (AMSL)
07 OM OM - - 71.41° / 69.11° - 204 ft / 62 m (AMSL)
07 LOC-ILS KB 110.10 MHz 18 nm / 33 km 71.60° / 69.31° - 204 ft / 62 m (AMSL)
07 MM MM - - 71.41° / 69.11° - 204 ft / 62 m (AMSL)

Map

Weather


0- 5 10 15 20 25 30 35+ Temperature / °C

Clouds and Precipitation
Forecast for 2019-07-21 00:00 UTC. Updated an hour ago

Ground ~20,000 ft ~40,000 ft Winds

METAR

ENKB 202220Z AUTO VRB03KT 9999 FEW100/// SCT150/// 19/10 Q1006 RMK WIND 745FT 14007KT

TAF

Not found

Frequencies

Tower 118.30 MHz
Tower 121.20 MHz
Warning: Do not use this data for real-world aviation or navigation. No guarantee of current accuracy is given.